createdAt,value
2018-08-30T00:01:02.405Z,34
2018-08-30T00:02:04.837Z,34.1
2018-08-30T00:03:07.264Z,34.1
2018-08-30T00:04:09.695Z,34.1
2018-08-30T00:05:12.126Z,34
2018-08-30T00:06:14.573Z,33.9
2018-08-30T00:07:16.726Z,34
2018-08-30T00:08:18.893Z,34.1
2018-08-30T00:09:21.339Z,34.1
2018-08-30T00:10:23.783Z,33.9
2018-08-30T00:11:26.216Z,34
2018-08-30T00:12:28.665Z,33.9
2018-08-30T00:13:31.109Z,34
2018-08-30T00:14:33.545Z,34.1
2018-08-30T00:15:35.718Z,34.1
2018-08-30T00:16:37.870Z,34
2018-08-30T00:17:40.297Z,34.1
2018-08-30T00:18:42.723Z,34.1
2018-08-30T00:19:45.145Z,34
2018-08-30T00:20:47.595Z,34.1
2018-08-30T00:21:50.035Z,34.1
2018-08-30T00:22:52.477Z,33.9
2018-08-30T00:23:54.644Z,34.1
2018-08-30T00:24:57.084Z,34
2018-08-30T00:25:59.523Z,34.1
2018-08-30T00:27:01.692Z,34
2018-08-30T00:28:03.861Z,34.1
2018-08-30T00:29:06.300Z,33.9
2018-08-30T00:30:08.724Z,34.1
2018-08-30T00:31:11.159Z,34
2018-08-30T00:32:13.597Z,34
2018-08-30T00:33:16.029Z,34.1
2018-08-30T00:34:18.468Z,34.2
2018-08-30T00:35:20.928Z,34.1
2018-08-30T00:36:23.425Z,34.1
2018-08-30T00:37:25.600Z,34
2018-08-30T00:38:28.038Z,34.2
2018-08-30T00:39:30.489Z,34.2
2018-08-30T00:40:32.654Z,34.1
2018-08-30T00:41:35.097Z,34.3
2018-08-30T00:42:37.526Z,34
2018-08-30T00:43:39.993Z,34.3
2018-08-30T00:44:42.146Z,34.1
2018-08-30T00:45:44.588Z,34.3
2018-08-30T00:46:47.017Z,34.1
2018-08-30T00:47:49.186Z,34.2
2018-08-30T00:48:51.351Z,34.3
2018-08-30T00:49:53.836Z,34.1
2018-08-30T00:50:56.278Z,34
2018-08-30T00:51:58.746Z,34.1
2018-08-30T00:53:00.951Z,34.1
2018-08-30T00:54:03.381Z,34.2
2018-08-30T00:55:05.806Z,34.2
2018-08-30T00:56:07.953Z,34.1
2018-08-30T00:57:10.385Z,34.2
2018-08-30T00:58:12.814Z,34.2
2018-08-30T00:59:15.250Z,34
2018-08-30T01:00:17.678Z,34.3
2018-08-30T01:01:20.135Z,34.3
2018-08-30T01:02:22.566Z,34.3
2018-08-30T01:03:24.990Z,34.3
2018-08-30T01:04:27.427Z,34.2
2018-08-30T01:05:29.866Z,34.2
2018-08-30T01:06:32.026Z,34.2
2018-08-30T01:07:34.477Z,34.4
2018-08-30T01:08:37.111Z,34.2
2018-08-30T01:09:39.550Z,34.3
2018-08-30T01:10:41.425Z,34.3
2018-08-30T01:11:43.590Z,34.3
2018-08-30T01:12:45.569Z,34.3
2018-08-30T01:13:48.013Z,34.2
2018-08-30T01:14:50.446Z,34.2
2018-08-30T01:15:52.877Z,34.3
2018-08-30T01:16:55.324Z,34.3
2018-08-30T01:17:57.759Z,34.3
2018-08-30T01:19:00.214Z,34.2
2018-08-30T01:20:02.676Z,34.3
2018-08-30T01:21:05.110Z,34.2
2018-08-30T01:22:07.286Z,34.1
2018-08-30T01:23:09.424Z,34.3
2018-08-30T01:24:11.860Z,34.4
2018-08-30T01:25:14.287Z,34.2
2018-08-30T01:26:16.735Z,34.1
2018-08-30T01:27:19.178Z,34.3
2018-08-30T01:28:21.353Z,34.2
2018-08-30T01:29:23.784Z,34.3
2018-08-30T01:30:25.953Z,34.3
2018-08-30T01:31:43.061Z,34.3
2018-08-30T01:32:45.517Z,34.2
2018-08-30T01:33:47.960Z,34.3
2018-08-30T01:34:50.401Z,34.3
2018-08-30T01:35:52.857Z,34.2
2018-08-30T01:36:55.324Z,34.4
2018-08-30T01:37:57.472Z,34.2
2018-08-30T01:38:59.909Z,34.4
2018-08-30T01:40:02.363Z,34.2
2018-08-30T01:41:04.795Z,34.2
2018-08-30T01:42:07.257Z,34.4
2018-08-30T01:43:09.749Z,34.3
2018-08-30T01:44:12.189Z,34.4
2018-08-30T01:45:14.618Z,34.3
2018-08-30T01:46:16.818Z,34.3
2018-08-30T01:47:19.240Z,34.3
2018-08-30T01:48:21.388Z,34.4
2018-08-30T01:49:23.517Z,34.4
2018-08-30T01:50:25.967Z,34.4
2018-08-30T01:51:28.415Z,34.3
2018-08-30T01:52:30.841Z,34.3
2018-08-30T01:53:33.270Z,34.3
2018-08-30T01:54:35.704Z,34.4
2018-08-30T01:55:38.177Z,34.2
2018-08-30T01:56:40.613Z,34.3
2018-08-30T01:57:43.065Z,34.3
2018-08-30T01:58:45.497Z,34.4
2018-08-30T01:59:47.937Z,34.4
2018-08-30T02:00:50.378Z,34.5
2018-08-30T02:01:52.837Z,34.3
2018-08-30T02:02:55.287Z,34.4
2018-08-30T02:03:57.728Z,34.3
2018-08-30T02:05:00.178Z,34.5
2018-08-30T02:06:02.628Z,34.3
2018-08-30T02:07:05.069Z,34.4
2018-08-30T02:08:07.508Z,34.3
2018-08-30T02:09:09.967Z,34.4
2018-08-30T02:10:12.405Z,34.4
2018-08-30T02:11:14.846Z,34.3
2018-08-30T02:12:17.276Z,34.5
2018-08-30T02:13:19.717Z,34.5
2018-08-30T02:14:22.175Z,34.4
2018-08-30T02:15:24.608Z,34.3
2018-08-30T02:16:27.061Z,34.5
2018-08-30T02:17:29.503Z,34.4
2018-08-30T02:18:31.927Z,34.5
2018-08-30T02:19:34.366Z,34.4
2018-08-30T02:20:36.808Z,34.4
2018-08-30T02:21:39.265Z,34.6
2018-08-30T02:22:41.142Z,34.4
2018-08-30T02:23:43.602Z,34.4
2018-08-30T02:24:46.057Z,34.6
2018-08-30T02:25:48.487Z,34.4
2018-08-30T02:26:50.912Z,34.5
2018-08-30T02:27:53.076Z,34.3
2018-08-30T02:28:55.523Z,34.3
2018-08-30T02:29:57.697Z,34.3
2018-08-30T02:31:00.134Z,34.4
2018-08-30T02:32:02.582Z,34.3
2018-08-30T02:33:05.003Z,34.3
2018-08-30T02:34:07.434Z,34.5
2018-08-30T02:35:09.885Z,34.6
2018-08-30T02:36:12.328Z,34.3
2018-08-30T02:37:14.747Z,34.5
2018-08-30T02:38:16.908Z,34.5
2018-08-30T02:39:19.365Z,34.4
2018-08-30T02:40:21.830Z,34.4
2018-08-30T02:41:24.276Z,34.5
2018-08-30T02:42:26.727Z,34.4
2018-08-30T02:43:29.168Z,34.4
2018-08-30T02:44:31.602Z,34.5
2018-08-30T02:45:33.754Z,34.5
2018-08-30T02:46:36.204Z,34.4
2018-08-30T02:47:38.635Z,34.5
2018-08-30T02:48:41.064Z,34.6
2018-08-30T02:49:43.503Z,34.4
2018-08-30T02:50:45.927Z,34.5
2018-08-30T02:51:48.373Z,34.5
2018-08-30T02:52:50.800Z,34.3
2018-08-30T02:53:53.233Z,34.3
2018-08-30T02:54:55.667Z,34.3
2018-08-30T02:55:58.097Z,34.4
2018-08-30T02:57:00.532Z,34.5
2018-08-30T02:58:02.968Z,34.4
2018-08-30T02:59:05.406Z,34.4
2018-08-30T03:00:07.573Z,34.3
2018-08-30T03:01:10.028Z,34.3
2018-08-30T03:02:12.454Z,34.3
2018-08-30T03:03:14.889Z,34.4
2018-08-30T03:04:17.327Z,34.4
2018-08-30T03:05:19.757Z,34.3
2018-08-30T03:06:22.182Z,34.4
2018-08-30T03:07:24.616Z,34.3
2018-08-30T03:08:27.054Z,34.3
2018-08-30T03:09:29.481Z,34.4
2018-08-30T03:10:31.907Z,34.4
2018-08-30T03:11:34.343Z,34.2
2018-08-30T03:12:36.517Z,34.3
2018-08-30T03:13:38.698Z,34.3
2018-08-30T03:14:40.618Z,34.2
2018-08-30T03:15:43.046Z,34.4
2018-08-30T03:16:45.485Z,34.1
2018-08-30T03:17:47.650Z,34.3
2018-08-30T03:18:50.074Z,34.1
2018-08-30T03:19:52.505Z,34.2
2018-08-30T03:20:54.677Z,34.3
2018-08-30T03:21:56.845Z,34.2
2018-08-30T03:22:59.275Z,34.2
2018-08-30T03:24:01.711Z,34.1
2018-08-30T03:25:03.865Z,34.2
2018-08-30T03:26:06.303Z,34.1
2018-08-30T03:27:08.753Z,34.1
2018-08-30T03:28:11.187Z,34.2
2018-08-30T03:29:13.629Z,34.1
2018-08-30T03:30:16.305Z,34.2
2018-08-30T03:31:19.412Z,34.1
2018-08-30T03:32:21.859Z,34.1
2018-08-30T03:33:24.490Z,34.1
2018-08-30T03:34:26.920Z,34.2
2018-08-30T03:35:29.353Z,34
2018-08-30T03:36:31.797Z,34.1
2018-08-30T03:37:34.234Z,34
2018-08-30T03:38:36.660Z,34.1
2018-08-30T03:39:39.096Z,34
2018-08-30T03:40:41.526Z,34
2018-08-30T03:41:43.966Z,33.9
2018-08-30T03:42:46.403Z,34.1
2018-08-30T03:43:49.035Z,33.9
2018-08-30T03:44:51.205Z,33.9
2018-08-30T03:45:53.635Z,34
2018-08-30T03:46:56.140Z,34.1
2018-08-30T03:47:58.565Z,34
2018-08-30T03:49:01.004Z,33.9
2018-08-30T03:50:03.436Z,34
2018-08-30T03:51:05.604Z,34
2018-08-30T03:52:08.053Z,33.9
2018-08-30T03:53:10.493Z,33.9
2018-08-30T03:54:12.927Z,33.9
2018-08-30T03:55:15.636Z,33.9
2018-08-30T03:56:18.049Z,34
2018-08-30T03:57:20.495Z,33.9
2018-08-30T03:58:22.638Z,33.9
2018-08-30T03:59:25.072Z,34
2018-08-30T04:00:27.512Z,33.9
2018-08-30T04:01:29.948Z,33.9
2018-08-30T04:02:32.385Z,33.9
2018-08-30T04:03:34.833Z,33.9
2018-08-30T04:04:37.004Z,33.8
2018-08-30T04:05:39.442Z,33.9
2018-08-30T04:06:41.879Z,33.8
2018-08-30T04:07:44.318Z,33.8
2018-08-30T04:08:46.763Z,33.8
2018-08-30T04:09:49.256Z,33.8
2018-08-30T04:10:51.748Z,33.8
2018-08-30T04:11:54.176Z,33.7
2018-08-30T04:12:56.609Z,33.9
2018-08-30T04:13:59.045Z,33.8
2018-08-30T04:15:01.477Z,33.8
2018-08-30T04:16:03.909Z,33.8
2018-08-30T04:17:06.344Z,33.8
2018-08-30T04:18:08.784Z,33.8
2018-08-30T04:19:11.216Z,33.7
2018-08-30T04:20:13.650Z,33.9
2018-08-30T04:21:16.088Z,33.7
2018-08-30T04:22:18.526Z,33.6
2018-08-30T04:23:20.961Z,33.8
2018-08-30T04:24:23.407Z,33.7
2018-08-30T04:25:25.848Z,33.7
2018-08-30T04:26:28.291Z,33.7
2018-08-30T04:27:30.718Z,33.7
2018-08-30T04:28:33.144Z,33.7
2018-08-30T04:29:35.588Z,33.7
2018-08-30T04:30:38.036Z,33.8
2018-08-30T04:31:40.466Z,33.6
2018-08-30T04:32:42.919Z,33.7
2018-08-30T04:33:45.124Z,33.8
2018-08-30T04:34:47.554Z,33.9
2018-08-30T04:35:49.996Z,33.8
2018-08-30T04:36:52.443Z,33.7
2018-08-30T04:37:54.883Z,33.7
2018-08-30T04:38:57.321Z,33.8
2018-08-30T04:39:59.465Z,33.6
2018-08-30T04:41:01.906Z,33.7
2018-08-30T04:42:04.363Z,33.7
2018-08-30T04:43:06.805Z,33.8
2018-08-30T04:44:09.256Z,33.8
2018-08-30T04:45:11.694Z,33.8
2018-08-30T04:46:14.146Z,33.9
2018-08-30T04:47:16.601Z,33.7
2018-08-30T04:48:18.756Z,33.7
2018-08-30T04:49:21.183Z,33.7
2018-08-30T04:50:23.653Z,33.7
2018-08-30T04:51:26.247Z,33.7
2018-08-30T04:52:28.686Z,33.8
2018-08-30T04:53:31.115Z,33.7
2018-08-30T04:54:33.314Z,33.7
2018-08-30T04:55:35.762Z,33.8
2018-08-30T04:56:38.187Z,33.6
2018-08-30T04:57:40.609Z,33.6
2018-08-30T04:58:42.777Z,33.7
2018-08-30T04:59:45.211Z,33.6
2018-08-30T05:00:47.660Z,33.7
2018-08-30T05:01:50.485Z,33.6
2018-08-30T05:02:53.467Z,33.6
2018-08-30T05:03:55.906Z,33.8
2018-08-30T05:04:58.069Z,33.7
2018-08-30T05:06:00.509Z,33.7
2018-08-30T05:07:02.947Z,33.7
2018-08-30T05:08:05.386Z,33.7
2018-08-30T05:09:07.832Z,33.7
2018-08-30T05:10:10.551Z,33.7
2018-08-30T05:11:13.370Z,33.7
2018-08-30T05:12:15.806Z,33.7
2018-08-30T05:13:18.262Z,33.6
2018-08-30T05:14:20.685Z,33.6
2018-08-30T05:15:23.117Z,33.6
2018-08-30T05:16:25.328Z,33.6
2018-08-30T05:17:27.873Z,33.7
2018-08-30T05:18:30.307Z,33.8
2018-08-30T05:19:32.465Z,33.7
2018-08-30T05:20:34.907Z,33.7
2018-08-30T05:21:37.060Z,33.7
2018-08-30T05:22:39.496Z,33.7
2018-08-30T05:23:41.937Z,33.7
2018-08-30T05:24:44.369Z,33.7
2018-08-30T05:25:46.797Z,33.6
2018-08-30T05:26:49.250Z,33.7
2018-08-30T05:27:51.685Z,33.7
2018-08-30T05:28:54.107Z,33.7
2018-08-30T05:29:56.906Z,33.7
2018-08-30T05:30:59.786Z,33.7
2018-08-30T05:32:02.222Z,33.7
2018-08-30T05:33:04.655Z,33.6
2018-08-30T05:34:07.100Z,33.6
2018-08-30T05:35:09.524Z,33.8
2018-08-30T05:36:11.953Z,33.6
2018-08-30T05:37:14.395Z,33.8
2018-08-30T05:38:16.825Z,33.8
2018-08-30T05:39:19.272Z,33.7
2018-08-30T05:40:21.416Z,33.6
2018-08-30T05:41:23.846Z,33.7
2018-08-30T05:42:26.277Z,33.6
2018-08-30T05:43:28.730Z,33.7
2018-08-30T05:44:31.252Z,33.6
2018-08-30T05:45:33.468Z,33.7
2018-08-30T05:46:35.904Z,33.6
2018-08-30T05:47:38.321Z,33.7
2018-08-30T05:48:40.757Z,33.6
2018-08-30T05:49:42.885Z,33.7
2018-08-30T05:50:45.313Z,33.8
2018-08-30T05:51:47.778Z,33.8
2018-08-30T05:52:50.213Z,33.7
2018-08-30T05:53:52.653Z,33.6
2018-08-30T05:54:55.093Z,33.7
2018-08-30T05:55:57.522Z,33.6
2018-08-30T05:57:00.170Z,33.6
2018-08-30T05:58:03.106Z,33.7
2018-08-30T05:59:05.549Z,33.7
2018-08-30T06:00:07.985Z,33.6
2018-08-30T06:01:10.152Z,33.7
2018-08-30T06:02:12.608Z,33.5
2018-08-30T06:03:15.071Z,33.7
2018-08-30T06:04:17.223Z,33.5
2018-08-30T06:05:19.654Z,33.7
2018-08-30T06:06:22.121Z,33.5
2018-08-30T06:07:24.890Z,33.6
2018-08-30T06:08:27.961Z,33.5
2018-08-30T06:09:30.610Z,33.6
2018-08-30T06:10:32.761Z,33.6
2018-08-30T06:11:35.215Z,33.6
2018-08-30T06:12:37.659Z,33.6
2018-08-30T06:13:40.091Z,33.5
2018-08-30T06:14:42.267Z,33.6
2018-08-30T06:15:44.700Z,33.5
2018-08-30T06:16:47.145Z,33.6
2018-08-30T06:17:49.572Z,33.6
2018-08-30T06:18:51.708Z,33.6
2018-08-30T06:19:54.133Z,33.6
2018-08-30T06:20:56.301Z,33.7
2018-08-30T06:21:58.739Z,33.5
2018-08-30T06:23:01.178Z,33.4
2018-08-30T06:24:03.607Z,33.5
2018-08-30T06:25:06.049Z,33.7
2018-08-30T06:26:08.219Z,33.5
2018-08-30T06:27:10.648Z,33.5
2018-08-30T06:28:13.090Z,33.6
2018-08-30T06:29:15.365Z,33.6
2018-08-30T06:30:18.087Z,33.5
2018-08-30T06:31:20.528Z,33.6
2018-08-30T06:32:22.978Z,33.5
2018-08-30T06:33:25.434Z,33.6
2018-08-30T06:34:27.926Z,33.6
2018-08-30T06:35:30.359Z,33.6
2018-08-30T06:36:32.801Z,33.6
2018-08-30T06:37:35.233Z,33.6
2018-08-30T06:38:37.684Z,33.6
2018-08-30T06:39:40.304Z,33.5
2018-08-30T06:40:42.738Z,33.5
2018-08-30T06:41:45.171Z,33.6
2018-08-30T06:42:47.091Z,33.5
2018-08-30T06:43:49.265Z,33.5
2018-08-30T06:44:51.697Z,33.6
2018-08-30T06:45:54.142Z,33.7
2018-08-30T06:46:56.596Z,33.5
2018-08-30T06:47:59.043Z,33.7
2018-08-30T06:49:01.747Z,33.6
2018-08-30T06:50:04.058Z,33.6
2018-08-30T06:51:06.501Z,33.6
2018-08-30T06:52:08.961Z,33.6
2018-08-30T06:53:11.095Z,33.5
2018-08-30T06:54:13.549Z,33.6
2018-08-30T06:55:15.997Z,33.6
2018-08-30T06:56:18.594Z,33.6
2018-08-30T06:57:21.284Z,33.6
2018-08-30T06:58:23.783Z,33.7
2018-08-30T06:59:26.435Z,33.6
2018-08-30T07:00:28.596Z,33.6
2018-08-30T07:01:31.027Z,33.5
2018-08-30T07:02:33.459Z,33.6
2018-08-30T07:03:35.903Z,33.7
2018-08-30T07:04:38.347Z,33.6
2018-08-30T07:05:40.789Z,33.6
2018-08-30T07:06:43.236Z,33.6
2018-08-30T07:07:45.676Z,33.5
2018-08-30T07:08:48.118Z,33.5
2018-08-30T07:09:50.281Z,33.5
2018-08-30T07:10:52.710Z,33.6
2018-08-30T07:11:55.175Z,33.6
2018-08-30T07:12:57.601Z,33.6
2018-08-30T07:14:00.037Z,33.5
2018-08-30T07:15:02.682Z,33.5
2018-08-30T07:16:05.481Z,33.6
2018-08-30T07:17:07.909Z,33.5
2018-08-30T07:18:10.335Z,33.4
2018-08-30T07:19:12.496Z,33.5
2018-08-30T07:20:14.931Z,33.6
2018-08-30T07:21:17.398Z,33.5
2018-08-30T07:22:19.836Z,33.5
2018-08-30T07:23:22.284Z,33.6
2018-08-30T07:24:25.120Z,33.5
2018-08-30T07:25:27.983Z,33.5
2018-08-30T07:26:30.478Z,33.5
2018-08-30T07:27:32.903Z,33.6
2018-08-30T07:28:35.551Z,33.6
2018-08-30T07:29:38.221Z,33.5
2018-08-30T07:30:40.661Z,33.6
2018-08-30T07:31:43.117Z,33.5
2018-08-30T07:32:45.673Z,33.5
2018-08-30T07:33:48.119Z,33.4
2018-08-30T07:34:50.967Z,33.5
2018-08-30T07:35:54.076Z,33.6
2018-08-30T07:36:56.552Z,33.5
2018-08-30T07:37:59.006Z,33.4
2018-08-30T07:39:01.486Z,33.5
2018-08-30T07:40:03.937Z,33.5
2018-08-30T07:41:06.123Z,33.5
2018-08-30T07:42:08.559Z,33.5
2018-08-30T07:43:10.732Z,33.5
2018-08-30T07:44:13.480Z,33.6
2018-08-30T07:45:16.432Z,33.4
2018-08-30T07:46:18.569Z,33.5
2018-08-30T07:47:21.366Z,33.4
2018-08-30T07:48:24.297Z,33.5
2018-08-30T07:49:26.744Z,33.5
2018-08-30T07:50:29.190Z,33.5
2018-08-30T07:51:31.620Z,33.5
2018-08-30T07:52:34.064Z,33.4
2018-08-30T07:53:36.492Z,33.5
2018-08-30T07:54:38.878Z,33.4
2018-08-30T07:55:41.657Z,33.5
2018-08-30T07:56:44.106Z,33.5
2018-08-30T07:57:46.542Z,33.6
2018-08-30T07:58:48.746Z,33.5
2018-08-30T07:59:51.293Z,33.6
2018-08-30T08:00:53.960Z,33.6
2018-08-30T08:01:56.422Z,33.5
2018-08-30T08:02:58.856Z,33.5
2018-08-30T08:04:01.025Z,33.5
2018-08-30T08:05:03.470Z,33.5
2018-08-30T08:06:05.863Z,33.5
2018-08-30T08:07:08.778Z,33.5
2018-08-30T08:08:11.166Z,33.4
2018-08-30T08:09:13.320Z,33.5
2018-08-30T08:10:15.515Z,33.5
2018-08-30T08:11:17.952Z,33.4
2018-08-30T08:12:20.419Z,33.5
2018-08-30T08:13:22.902Z,33.5
2018-08-30T08:14:25.368Z,33.4
2018-08-30T08:15:27.808Z,33.4
2018-08-30T08:16:29.995Z,33.5
2018-08-30T08:17:32.447Z,33.5
2018-08-30T08:18:34.641Z,33.5
2018-08-30T08:19:37.094Z,33.4
2018-08-30T08:20:39.557Z,33.5
2018-08-30T08:21:42.015Z,33.4
2018-08-30T08:22:44.483Z,33.5
2018-08-30T08:23:46.932Z,33.4
2018-08-30T08:24:49.468Z,33.5
2018-08-30T08:25:52.030Z,33.4
2018-08-30T08:26:54.498Z,33.4
2018-08-30T08:27:56.947Z,33.4
2018-08-30T08:28:59.385Z,33.5
2018-08-30T08:30:01.829Z,33.5
2018-08-30T08:31:04.269Z,33.5
2018-08-30T08:32:06.783Z,33.4
2018-08-30T08:33:09.228Z,33.4
2018-08-30T08:34:11.675Z,33.4
2018-08-30T08:35:13.875Z,33.5
2018-08-30T08:36:16.312Z,33.5
2018-08-30T08:37:18.762Z,33.5
2018-08-30T08:38:21.197Z,33.4
2018-08-30T08:39:23.652Z,33.5
2018-08-30T08:40:26.106Z,33.5
2018-08-30T08:41:28.293Z,33.5
2018-08-30T08:42:30.752Z,33.6
2018-08-30T08:43:33.201Z,33.5
2018-08-30T08:44:35.658Z,33.5
2018-08-30T08:45:38.121Z,33.4
2018-08-30T08:46:40.279Z,33.4
2018-08-30T08:47:42.818Z,33.5
2018-08-30T08:48:45.534Z,33.5
2018-08-30T08:49:47.965Z,33.5
2018-08-30T08:50:50.420Z,33.4
2018-08-30T08:51:52.848Z,33.5
2018-08-30T08:52:55.288Z,33.5
2018-08-30T08:53:57.459Z,33.4
2018-08-30T08:54:59.878Z,33.4
2018-08-30T08:56:02.332Z,33.4
2018-08-30T08:57:04.770Z,33.5
2018-08-30T08:58:07.226Z,33.5
2018-08-30T08:59:09.456Z,33.5
2018-08-30T09:00:12.122Z,33.4
2018-08-30T09:01:14.607Z,33.5
2018-08-30T09:02:16.900Z,33.5
2018-08-30T09:03:19.377Z,33.4
2018-08-30T09:04:21.819Z,33.5
2018-08-30T09:05:24.261Z,33.5
2018-08-30T09:06:26.697Z,33.5
2018-08-30T09:07:29.185Z,33.5
2018-08-30T09:08:31.736Z,33.4
2018-08-30T09:09:33.915Z,33.4
2018-08-30T09:10:36.361Z,33.5
2018-08-30T09:11:38.827Z,33.3
2018-08-30T09:12:41.260Z,33.4
2018-08-30T09:13:43.713Z,33.5
2018-08-30T09:14:46.140Z,33.5
2018-08-30T09:15:48.583Z,33.5
2018-08-30T09:16:51.026Z,33.5
2018-08-30T09:17:53.462Z,33.5
2018-08-30T09:18:55.885Z,33.4
2018-08-30T09:19:58.047Z,33.3
2018-08-30T09:21:00.215Z,33.3
2018-08-30T09:22:02.663Z,33.4
2018-08-30T09:23:04.991Z,33.5
2018-08-30T09:24:07.623Z,33.4
2018-08-30T09:25:10.056Z,33.5
2018-08-30T09:26:12.493Z,33.5
2018-08-30T09:27:15.164Z,33.5
2018-08-30T09:28:18.058Z,33.5
2018-08-30T09:29:20.501Z,33.4
2018-08-30T09:30:22.931Z,33.5
2018-08-30T09:31:25.371Z,33.5
2018-08-30T09:32:27.803Z,33.5
2018-08-30T09:33:30.236Z,33.4
2018-08-30T09:34:32.670Z,33.4
2018-08-30T09:35:34.833Z,33.4
2018-08-30T09:36:37.281Z,33.4
2018-08-30T09:37:39.731Z,33.5
2018-08-30T09:38:42.165Z,33.4
2018-08-30T09:39:44.604Z,33.4
2018-08-30T09:40:47.055Z,33.4
2018-08-30T09:41:49.483Z,33.4
2018-08-30T09:42:51.925Z,33.5
2018-08-30T09:43:54.679Z,33.3
2018-08-30T09:44:57.140Z,33.5
2018-08-30T09:45:59.325Z,33.5
2018-08-30T09:47:01.782Z,33.5
2018-08-30T09:48:04.223Z,33.4
2018-08-30T09:49:06.668Z,33.4
2018-08-30T09:50:09.094Z,33.5
2018-08-30T09:51:11.527Z,33.4
2018-08-30T09:52:13.712Z,33.4
2018-08-30T09:53:15.854Z,33.5
2018-08-30T09:54:18.277Z,33.4
2018-08-30T09:55:20.713Z,33.5
2018-08-30T09:56:22.879Z,33.4
2018-08-30T09:57:25.535Z,33.4
2018-08-30T09:58:28.507Z,33.5
2018-08-30T09:59:30.940Z,33.4
2018-08-30T10:00:33.375Z,33.5
2018-08-30T10:01:35.819Z,33.4
2018-08-30T10:02:38.263Z,33.4
2018-08-30T10:03:40.483Z,33.4
2018-08-30T10:04:43.084Z,33.4
2018-08-30T10:05:46.037Z,33.4
2018-08-30T10:06:48.184Z,33.5
2018-08-30T10:07:50.614Z,33.5
2018-08-30T10:08:53.042Z,33.4
2018-08-30T10:09:55.477Z,33.5
2018-08-30T10:10:57.909Z,33.4
2018-08-30T10:12:00.334Z,33.4
2018-08-30T10:13:02.516Z,33.3
2018-08-30T10:14:04.673Z,33.4
2018-08-30T10:15:07.100Z,33.5
2018-08-30T10:16:09.556Z,33.5
2018-08-30T10:17:12.008Z,33.4
2018-08-30T10:18:14.465Z,33.6
2018-08-30T10:19:16.925Z,33.5
2018-08-30T10:20:19.354Z,33.4
2018-08-30T10:21:21.913Z,33.5
2018-08-30T10:22:24.499Z,33.4
2018-08-30T10:23:26.951Z,33.4
2018-08-30T10:24:29.404Z,33.4
2018-08-30T10:25:32.039Z,33.4
2018-08-30T10:26:35.028Z,33.3
2018-08-30T10:27:37.464Z,33.4
2018-08-30T10:28:39.636Z,33.5
2018-08-30T10:29:42.076Z,33.4
2018-08-30T10:30:44.280Z,33.5
2018-08-30T10:31:46.718Z,33.3
2018-08-30T10:32:49.154Z,33.5
2018-08-30T10:33:51.595Z,33.4
2018-08-30T10:34:54.006Z,33.5
2018-08-30T10:35:56.466Z,33.4
2018-08-30T10:36:59.083Z,33.5
2018-08-30T10:38:01.641Z,33.3
2018-08-30T10:39:03.787Z,33.4
2018-08-30T10:40:06.212Z,33.4
2018-08-30T10:41:08.386Z,33.4
2018-08-30T10:42:10.815Z,33.4
2018-08-30T10:43:13.245Z,33.4
2018-08-30T10:44:15.401Z,33.4
2018-08-30T10:45:17.579Z,33.5
2018-08-30T10:46:20.025Z,33.4
2018-08-30T10:47:22.450Z,33.5
2018-08-30T10:48:24.915Z,33.4
2018-08-30T10:49:27.516Z,33.4
2018-08-30T10:50:30.348Z,33.4
2018-08-30T10:51:32.789Z,33.4
2018-08-30T10:52:35.234Z,33.6
2018-08-30T10:53:37.666Z,33.5
2018-08-30T10:54:39.839Z,33.5
2018-08-30T10:55:42.275Z,33.4
2018-08-30T10:56:44.712Z,33.4
2018-08-30T10:57:47.156Z,33.4
2018-08-30T10:58:49.605Z,33.5
2018-08-30T10:59:52.064Z,33.4
2018-08-30T11:00:54.512Z,33.4
2018-08-30T11:01:56.949Z,33.3
2018-08-30T11:02:59.385Z,33.4
2018-08-30T11:04:01.838Z,33.4
2018-08-30T11:05:04.277Z,33.3
2018-08-30T11:06:06.441Z,33.3
2018-08-30T11:07:08.938Z,33.3
2018-08-30T11:08:11.381Z,33.5
2018-08-30T11:09:13.887Z,33.2
2018-08-30T11:10:16.336Z,33.4
2018-08-30T11:11:18.792Z,33.3
2018-08-30T11:12:21.227Z,33.4
2018-08-30T11:13:23.754Z,33.4
2018-08-30T11:14:26.146Z,33.4
2018-08-30T11:15:28.307Z,33.5
2018-08-30T11:16:30.445Z,33.5
2018-08-30T11:17:32.895Z,33.4
2018-08-30T11:18:35.340Z,33.5
2018-08-30T11:19:37.809Z,33.5
2018-08-30T11:20:40.246Z,33.4
2018-08-30T11:21:42.892Z,33.4
2018-08-30T11:22:45.038Z,33.4
2018-08-30T11:23:47.488Z,33.3
2018-08-30T11:24:50.069Z,33.4
2018-08-30T11:25:52.232Z,33.5
2018-08-30T11:26:54.667Z,33.4
2018-08-30T11:27:56.838Z,33.5
2018-08-30T11:28:59.260Z,33.4
2018-08-30T11:30:01.723Z,33.5
2018-08-30T11:31:04.155Z,33.5
2018-08-30T11:32:06.618Z,33.4
2018-08-30T11:33:09.049Z,33.5
2018-08-30T11:34:11.490Z,33.5
2018-08-30T11:35:13.946Z,33.5
2018-08-30T11:36:16.401Z,33.5
2018-08-30T11:37:18.578Z,33.5
2018-08-30T11:38:21.019Z,33.5
2018-08-30T11:39:23.457Z,33.4
2018-08-30T11:40:25.893Z,33.4
2018-08-30T11:41:28.623Z,33.6
2018-08-30T11:42:31.737Z,33.4
2018-08-30T11:43:34.169Z,33.5
2018-08-30T11:44:36.356Z,33.4
2018-08-30T11:45:38.817Z,33.4
2018-08-30T11:46:40.960Z,33.4
2018-08-30T11:47:43.407Z,33.5
2018-08-30T11:48:45.560Z,33.5
2018-08-30T11:49:47.999Z,33.5
2018-08-30T11:51:05.121Z,33.5
2018-08-30T11:52:07.747Z,33.5
2018-08-30T11:53:10.328Z,33.5
2018-08-30T11:54:12.823Z,33.6
2018-08-30T11:55:15.619Z,33.5
2018-08-30T11:56:18.113Z,33.5
2018-08-30T11:57:20.754Z,33.5
2018-08-30T11:58:23.209Z,33.4
2018-08-30T11:59:25.681Z,33.5
2018-08-30T12:00:28.123Z,33.5
2018-08-30T12:01:30.575Z,33.5
2018-08-30T12:02:33.050Z,33.4
2018-08-30T12:03:35.500Z,33.5
2018-08-30T12:04:37.948Z,33.6
2018-08-30T12:05:40.408Z,33.5
2018-08-30T12:06:42.566Z,33.5
2018-08-30T12:07:45.101Z,33.5
2018-08-30T12:08:47.544Z,33.4
2018-08-30T12:09:49.701Z,33.5
2018-08-30T12:10:52.472Z,33.5
2018-08-30T12:11:55.413Z,33.4
2018-08-30T12:12:57.840Z,33.5
2018-08-30T12:14:00.270Z,33.6
2018-08-30T12:15:02.424Z,33.5
2018-08-30T12:16:04.889Z,33.5
2018-08-30T12:17:07.337Z,33.5
2018-08-30T12:18:10.068Z,33.5
2018-08-30T12:19:12.979Z,33.4
2018-08-30T12:20:15.397Z,33.6
2018-08-30T12:21:17.868Z,33.5
2018-08-30T12:22:20.296Z,33.6
2018-08-30T12:23:22.755Z,33.5
2018-08-30T12:24:24.975Z,33.5
2018-08-30T12:25:27.190Z,33.5
2018-08-30T12:26:29.660Z,33.5
2018-08-30T12:27:32.197Z,33.5
2018-08-30T12:28:34.472Z,33.6
2018-08-30T12:29:37.618Z,33.5
2018-08-30T12:30:40.087Z,33.6
2018-08-30T12:31:42.665Z,33.4
2018-08-30T12:32:45.207Z,33.6
2018-08-30T12:33:48.028Z,33.4
2018-08-30T12:34:50.973Z,33.5
2018-08-30T12:35:54.454Z,33.5
2018-08-30T12:36:57.497Z,33.5
2018-08-30T12:38:00.318Z,33.5
2018-08-30T12:39:02.790Z,33.6
2018-08-30T12:40:05.690Z,33.5
2018-08-30T12:41:09.412Z,33.5
2018-08-30T12:42:12.120Z,33.4
2018-08-30T12:43:14.935Z,33.5
2018-08-30T12:44:17.681Z,33.5
2018-08-30T12:45:20.056Z,33.5
2018-08-30T12:46:23.145Z,33.5
2018-08-30T12:47:25.675Z,33.5
2018-08-30T12:48:27.784Z,33.5
2018-08-30T12:49:30.329Z,33.6
2018-08-30T12:50:33.255Z,33.4
2018-08-30T12:51:37.626Z,33.5
2018-08-30T12:52:42.281Z,33.6
2018-08-30T12:53:45.758Z,33.4
2018-08-30T12:54:49.211Z,33.5
2018-08-30T12:55:52.672Z,33.5
2018-08-30T12:56:55.903Z,33.5
2018-08-30T12:57:59.440Z,33.5
2018-08-30T12:59:03.029Z,33.5
2018-08-30T13:00:06.786Z,33.4
2018-08-30T13:01:10.820Z,33.6
2018-08-30T13:02:14.593Z,33.5
2018-08-30T13:03:18.592Z,33.4
2018-08-30T13:04:22.643Z,33.3
2018-08-30T13:05:27.612Z,33.5
2018-08-30T13:06:32.539Z,33.4
2018-08-30T13:07:36.691Z,33.5
2018-08-30T13:08:41.523Z,33.5
2018-08-30T13:09:46.589Z,33.4
2018-08-30T13:10:51.596Z,33.4
2018-08-30T13:11:57.354Z,33.5
2018-08-30T13:13:01.191Z,33.5
2018-08-30T13:14:05.591Z,33.2
2018-08-30T13:15:10.762Z,33.5
2018-08-30T13:16:16.360Z,33.4
2018-08-30T13:17:20.116Z,33.4
2018-08-30T13:18:24.791Z,33.4
2018-08-30T13:19:29.888Z,33.4
2018-08-30T13:20:35.630Z,33.5
2018-08-30T13:21:40.220Z,33.4
2018-08-30T13:22:45.343Z,33.5
2018-08-30T13:23:50.598Z,33.5
2018-08-30T13:24:55.375Z,33.5
2018-08-30T13:26:00.816Z,33.5
2018-08-30T13:27:06.253Z,33.4
2018-08-30T13:28:11.387Z,33.4
2018-08-30T13:29:16.315Z,33.5
2018-08-30T13:30:21.901Z,33.3
2018-08-30T13:31:26.509Z,33.4
2018-08-30T13:32:32.107Z,33.5
2018-08-30T13:33:38.348Z,33.4
2018-08-30T13:34:43.489Z,33.4
2018-08-30T13:35:49.536Z,33.5
2018-08-30T13:36:56.184Z,33.4
2018-08-30T13:38:01.095Z,33.4
2018-08-30T13:39:07.668Z,33.3
2018-08-30T13:40:14.338Z,33.4
2018-08-30T13:41:21.143Z,33.3
2018-08-30T13:42:27.488Z,33.4
2018-08-30T13:43:33.366Z,33.5
2018-08-30T13:44:40.189Z,33.4
2018-08-30T13:45:45.863Z,33.4
2018-08-30T13:46:51.479Z,33.4
2018-08-30T13:47:56.883Z,33.4
2018-08-30T13:49:03.162Z,33.4
2018-08-30T13:50:09.764Z,33.4
2018-08-30T13:51:15.888Z,33.4
2018-08-30T13:52:22.277Z,33.4
2018-08-30T13:53:28.611Z,33.3
2018-08-30T13:54:35.134Z,33.4
2018-08-30T13:55:40.753Z,33.4
2018-08-30T13:56:46.895Z,33.3